Time;durP1;ratioP1;P1;durP2;ratioP2;P2;SDS_P1;SDS_P2;PMS_P1;PMS_P2;Temp;Humidity;BMP_temperature;BMP_pressure;BME280_temperature;BME280_humidity;BME280_pressure;Samples;Min_cycle;Max_cycle;Signal;HPM_P1;HPM_P2
2022/07/03 00:02:10;;;;;;;4.03;2.40;;;;;;;-145.67;100.00;66521.78;5007285;28;20470;-78
2022/07/03 00:04:36;;;;;;;5.50;1.52;;;;;;;-145.67;100.00;66521.78;4998839;28;20466;-78
2022/07/03 00:07:05;;;;;;;4.80;1.13;;;;;;;-145.67;100.00;66521.78;5004144;28;20134;-75
2022/07/03 00:09:31;;;;;;;1.88;1.00;;;;;;;-145.67;100.00;66521.78;5000758;28;20394;-77
2022/07/03 00:11:57;;;;;;;5.38;0.90;;;;;;;-145.67;100.00;66521.78;5002574;28;20561;-77
2022/07/03 00:14:24;;;;;;;3.80;1.10;;;;;;;-145.67;100.00;66521.78;5002254;28;20048;-78
2022/07/03 00:16:52;;;;;;;3.22;1.13;;;;;;;-145.67;100.00;66521.78;5001499;28;20034;-78
2022/07/03 00:19:17;;;;;;;2.88;1.13;;;;;;;-145.67;100.00;66521.78;5000479;28;20486;-78
2022/07/03 00:21:52;;;;;;;4.15;1.00;;;;;;;-145.67;100.00;66521.78;5001281;28;20036;-78
2022/07/03 00:24:32;;;;;;;5.35;1.08;;;;;;;-145.67;100.00;66521.78;5016005;28;20045;-77
2022/07/03 00:26:58;;;;;;;4.63;1.30;;;;;;;-145.67;100.00;66521.78;5003101;28;20037;-77
2022/07/03 00:29:32;;;;;;;2.70;1.20;;;;;;;-145.67;100.00;66521.78;5002058;28;20042;-76
2022/07/03 00:31:57;;;;;;;3.10;1.13;;;;;;;-145.67;100.00;66521.78;5000353;28;20045;-78
2022/07/03 00:34:26;;;;;;;4.13;1.00;;;;;;;-145.67;100.00;66521.78;5001411;28;20033;-77
2022/07/03 00:36:55;;;;;;;3.97;0.85;;;;;;;-145.67;100.00;66521.78;4999848;28;20058;-77
2022/07/03 00:39:20;;;;;;;3.55;0.82;;;;;;;-145.67;100.00;66521.78;4996128;28;20104;-76
2022/07/03 00:41:46;;;;;;;1.98;0.65;;;;;;;-145.67;100.00;66521.78;5002788;28;20043;-78
2022/07/03 00:44:12;;;;;;;3.42;0.73;;;;;;;-145.67;100.00;66521.78;5001524;28;20579;-76
2022/07/03 00:46:39;;;;;;;2.97;0.55;;;;;;;-145.67;100.00;66521.78;5015167;28;20037;-76
2022/07/03 00:49:06;;;;;;;4.28;1.20;;;;;;;-145.67;100.00;66521.78;4998368;28;20268;-76
2022/07/03 00:51:34;;;;;;;6.07;0.75;;;;;;;-145.67;100.00;66521.78;4997605;28;20734;-76
2022/07/03 00:54:02;;;;;;;3.92;0.90;;;;;;;-145.67;100.00;66521.78;5005178;28;20136;-77
2022/07/03 00:56:31;;;;;;;4.97;0.85;;;;;;;-145.67;100.00;66521.78;5000480;28;20033;-77
2022/07/03 00:58:59;;;;;;;3.80;0.80;;;;;;;-145.67;100.00;66521.78;5001559;28;20037;-78
2022/07/03 01:01:35;;;;;;;5.32;0.90;;;;;;;-145.67;100.00;66521.78;5013386;28;20049;-78
2022/07/03 01:04:05;;;;;;;2.45;0.77;;;;;;;-145.67;100.00;66521.78;5013180;28;20041;-77
2022/07/03 01:06:35;;;;;;;5.88;0.80;;;;;;;-145.67;100.00;66521.78;5012654;28;20103;-78
2022/07/03 01:09:03;;;;;;;3.75;0.70;;;;;;;-145.67;100.00;66521.78;5015007;28;20589;-76
2022/07/03 01:11:35;;;;;;;2.97;0.80;;;;;;;-145.67;100.00;66521.78;5000343;28;20747;-77
2022/07/03 01:14:13;;;;;;;2.05;0.98;;;;;;;-145.67;100.00;66521.78;5013853;28;20299;-77
2022/07/03 01:16:54;;;;;;;4.13;0.73;;;;;;;-145.67;100.00;66521.78;5002317;28;20185;-77
2022/07/03 01:19:44;;;;;;;5.78;1.20;;;;;;;-145.67;100.00;66521.78;5013667;28;20573;-77
2022/07/03 01:22:31;;;;;;;1.77;0.70;;;;;;;-145.67;100.00;66521.78;5005166;28;20061;-76
2022/07/03 01:25:22;;;;;;;4.57;0.70;;;;;;;-145.67;100.00;66521.78;4998919;28;20530;-77
2022/07/03 01:27:53;;;;;;;3.15;0.55;;;;;;;-145.67;100.00;66521.78;5001353;28;20037;-78
2022/07/03 01:30:21;;;;;;;1.98;0.85;;;;;;;-145.67;100.00;66521.78;5000128;28;20130;-78
2022/07/03 01:32:56;;;;;;;2.85;0.68;;;;;;;-145.67;100.00;66521.78;4998377;28;20034;-77
2022/07/03 01:35:27;;;;;;;2.05;0.70;;;;;;;-145.67;100.00;66521.78;5000136;28;20554;-78
2022/07/03 01:37:54;;;;;;;2.40;0.70;;;;;;;-145.67;100.00;66521.78;4989175;28;20038;-76
2022/07/03 01:40:23;;;;;;;2.47;0.68;;;;;;;-145.67;100.00;66521.78;4997120;28;20122;-76
2022/07/03 01:42:49;;;;;;;5.28;0.85;;;;;;;-145.67;100.00;66521.78;5000513;28;20041;-77
2022/07/03 01:45:15;;;;;;;1.15;0.70;;;;;;;-145.67;100.00;66521.78;5001046;28;20300;-77
2022/07/03 01:47:42;;;;;;;1.48;0.68;;;;;;;-145.67;100.00;66521.78;5001781;28;20520;-77
2022/07/03 01:50:14;;;;;;;4.00;0.90;;;;;;;-145.67;100.00;66521.78;4996077;28;20117;-77
2022/07/03 01:52:45;;;;;;;3.60;0.90;;;;;;;-145.67;100.00;66521.78;5001255;28;20037;-77
2022/07/03 01:55:12;;;;;;;4.03;0.77;;;;;;;-145.67;100.00;66521.78;5000363;28;20065;-77
2022/07/03 01:57:46;;;;;;;2.35;1.00;;;;;;;-145.67;100.00;66521.78;4988068;28;20250;-76
2022/07/03 02:00:12;;;;;;;5.20;1.13;;;;;;;-145.67;100.00;66521.78;5015184;28;20038;-78
2022/07/03 02:02:45;;;;;;;5.10;1.10;;;;;;;-145.67;100.00;66521.78;5000194;28;20041;-79
2022/07/03 02:05:23;;;;;;;4.70;1.10;;;;;;;-145.67;100.00;66521.78;5002138;28;20030;-77
2022/07/03 02:08:07;;;;;;;4.85;0.90;;;;;;;-145.67;100.00;66521.78;5000886;28;20049;-78
2022/07/03 02:10:46;;;;;;;5.47;0.95;;;;;;;-145.67;100.00;66521.78;4998721;28;20053;-76
2022/07/03 02:13:23;;;;;;;7.25;1.30;;;;;;;-145.67;100.00;66521.78;5012771;28;20172;-76
2022/07/03 02:15:52;;;;;;;4.55;1.00;;;;;;;-145.67;100.00;66521.78;4998153;28;20632;-77
2022/07/03 02:18:23;;;;;;;5.85;1.20;;;;;;;-145.67;100.00;66521.78;5016205;28;20108;-77
2022/07/03 02:20:56;;;;;;;4.10;0.93;;;;;;;-145.67;100.00;66521.78;5003774;28;20531;-78
2022/07/03 02:23:24;;;;;;;5.45;1.30;;;;;;;-145.67;100.00;66521.78;4986929;28;20490;-78
2022/07/03 02:25:51;;;;;;;6.35;1.20;;;;;;;-145.67;100.00;66521.78;4988158;28;20026;-77
2022/07/03 02:28:51;;;;;;;6.32;1.40;;;;;;;-145.67;100.00;66521.78;4978949;28;20064;-78
2022/07/03 02:31:16;;;;;;;6.57;1.20;;;;;;;-145.67;100.00;66521.78;4998069;28;20186;-78
2022/07/03 02:33:43;;;;;;;6.38;1.42;;;;;;;-145.67;100.00;66521.78;4972291;28;20029;-77
2022/07/03 02:36:10;;;;;;;6.07;1.30;;;;;;;-145.67;100.00;66521.78;5003865;28;20125;-77
2022/07/03 02:38:36;;;;;;;5.93;1.42;;;;;;;-145.67;100.00;66521.78;5014608;28;20041;-76
2022/07/03 02:41:18;;;;;;;6.10;1.33;;;;;;;-145.67;100.00;66521.78;5001324;28;20041;-78
2022/07/03 02:44:08;;;;;;;10.88;1.50;;;;;;;-145.67;100.00;66521.78;5003691;28;20442;-77
2022/07/03 02:46:49;;;;;;;5.05;1.20;;;;;;;-145.67;100.00;66521.78;5003843;28;20041;-77
2022/07/03 02:49:43;;;;;;;4.30;1.55;;;;;;;-145.67;100.00;66521.78;4999462;28;20044;-78
2022/07/03 02:52:28;;;;;;;8.07;1.42;;;;;;;-145.67;100.00;66521.78;4987307;28;20143;-79
2022/07/03 02:54:59;;;;;;;8.98;1.40;;;;;;;-145.67;100.00;66521.78;4974731;28;20906;-77
2022/07/03 02:57:28;;;;;;;7.28;1.52;;;;;;;-145.67;100.00;66521.78;5004372;28;20091;-76
2022/07/03 02:59:59;;;;;;;6.00;1.40;;;;;;;-145.67;100.00;66521.78;4988517;28;20471;-77
2022/07/03 03:02:37;;;;;;;4.65;1.50;;;;;;;-145.67;100.00;66521.78;5000695;28;20490;-77
2022/07/03 03:05:07;;;;;;;4.13;1.20;;;;;;;-145.67;100.00;66521.78;5003306;28;20037;-77
2022/07/03 03:07:41;;;;;;;7.05;1.63;;;;;;;-145.67;100.00;66521.78;5013863;28;20050;-76
2022/07/03 03:10:08;;;;;;;8.43;1.42;;;;;;;-145.67;100.00;66521.78;4996563;28;20041;-78
2022/07/03 03:12:39;;;;;;;6.88;1.85;;;;;;;-145.67;100.00;66521.78;5000123;28;21648;-79
2022/07/03 03:15:05;;;;;;;6.17;1.63;;;;;;;-145.67;100.00;66521.78;5000194;28;20057;-77
2022/07/03 03:17:43;;;;;;;6.60;1.67;;;;;;;-145.67;100.00;66521.78;5000193;28;20046;-78
2022/07/03 03:20:15;;;;;;;8.75;1.60;;;;;;;-145.67;100.00;66521.78;5000305;28;20120;-76
2022/07/03 03:22:43;;;;;;;8.27;1.85;;;;;;;-145.67;100.00;66521.78;4975335;28;20118;-77
2022/07/03 03:25:08;;;;;;;4.72;1.60;;;;;;;-145.67;100.00;66521.78;4998246;28;20440;-78
2022/07/03 03:27:34;;;;;;;8.05;1.90;;;;;;;-145.67;100.00;66521.78;4999113;28;20030;-77
2022/07/03 03:30:00;;;;;;;7.93;1.80;;;;;;;-145.67;100.00;66521.78;4977040;28;20040;-74
2022/07/03 03:32:26;;;;;;;6.43;1.90;;;;;;;-145.67;100.00;66521.78;4996586;28;20121;-77
2022/07/03 03:34:51;;;;;;;8.60;1.77;;;;;;;-145.67;100.00;66521.78;4980994;28;20040;-75
2022/07/03 03:37:19;;;;;;;9.77;2.33;;;;;;;-145.67;100.00;66521.78;4999071;28;20033;-78
2022/07/03 03:39:45;;;;;;;9.98;1.88;;;;;;;-145.67;100.00;66521.78;4998734;28;20124;-76
2022/07/03 03:42:11;;;;;;;8.73;1.80;;;;;;;-145.67;100.00;66521.78;4999518;28;20038;-77
2022/07/03 03:44:36;;;;;;;9.07;2.03;;;;;;;-145.67;100.00;66521.78;5011290;28;20528;-76
2022/07/03 03:47:02;;;;;;;11.90;2.30;;;;;;;-145.67;100.00;66521.78;4998815;28;20091;-77
2022/07/03 03:49:28;;;;;;;12.38;2.00;;;;;;;-145.67;100.00;66521.78;4977240;28;20091;-74
2022/07/03 03:51:54;;;;;;;9.80;2.25;;;;;;;-145.67;100.00;66521.78;4998316;28;20053;-77
2022/07/03 03:54:20;;;;;;;12.85;2.30;;;;;;;-145.67;100.00;66521.78;4997857;28;20599;-77
2022/07/03 03:56:45;;;;;;;12.05;2.13;;;;;;;-145.67;100.00;66521.78;4980241;28;20042;-77
2022/07/03 03:59:11;;;;;;;8.02;1.90;;;;;;;-145.67;100.00;66521.78;5004464;28;20505;-77
2022/07/03 04:01:38;;;;;;;9.88;2.20;;;;;;;-145.67;100.00;66521.78;4986552;28;20073;-77
2022/07/03 04:04:04;;;;;;;10.55;2.20;;;;;;;-145.67;100.00;66521.78;4997006;28;20041;-77
2022/07/03 04:06:29;;;;;;;9.77;2.38;;;;;;;-145.67;100.00;66521.78;4995217;28;20536;-77
2022/07/03 04:08:55;;;;;;;9.77;2.47;;;;;;;-145.67;100.00;66521.78;5002081;28;20521;-77
2022/07/03 04:11:20;;;;;;;16.20;2.20;;;;;;;-145.67;100.00;66521.78;4980892;28;20056;-76
2022/07/03 04:13:46;;;;;;;10.18;2.40;;;;;;;-145.67;100.00;66521.78;4999144;28;20045;-78
2022/07/03 04:16:12;;;;;;;11.95;2.20;;;;;;;-145.67;100.00;66521.78;4998204;28;20107;-76
2022/07/03 04:18:42;;;;;;;9.68;2.25;;;;;;;-145.67;100.00;66521.78;4998089;28;20048;-77
2022/07/03 04:21:08;;;;;;;12.30;2.20;;;;;;;-145.67;100.00;66521.78;5001743;28;20037;-77
2022/07/03 04:23:34;;;;;;;9.27;2.10;;;;;;;-145.67;100.00;66521.78;4996796;28;20044;-77
2022/07/03 04:26:06;;;;;;;10.52;2.22;;;;;;;-145.67;100.00;66521.78;4997827;28;20671;-77
2022/07/03 04:28:32;;;;;;;11.90;2.58;;;;;;;-145.67;100.00;66521.78;5011851;28;20033;-78
2022/07/03 04:31:01;;;;;;;11.13;2.75;;;;;;;-145.67;100.00;66521.78;4993790;28;20048;-78
2022/07/03 04:33:29;;;;;;;11.60;2.60;;;;;;;-145.67;100.00;66521.78;4996953;28;20041;-76
2022/07/03 04:35:54;;;;;;;13.90;2.45;;;;;;;-145.67;100.00;66521.78;4998907;28;20113;-76
2022/07/03 04:38:22;;;;;;;12.70;2.20;;;;;;;-145.67;100.00;66521.78;4998013;28;20052;-78
2022/07/03 04:40:48;;;;;;;14.02;2.60;;;;;;;-145.67;100.00;66521.78;4998306;28;20034;-76
2022/07/03 04:43:13;;;;;;;12.43;2.22;;;;;;;-145.67;100.00;66521.78;4998860;28;20048;-77
2022/07/03 04:45:39;;;;;;;9.43;2.03;;;;;;;-145.67;100.00;66521.78;5000114;28;20033;-78
2022/07/03 04:48:04;;;;;;;9.88;2.05;;;;;;;-145.67;100.00;66521.78;5003261;28;20117;-77
2022/07/03 04:50:30;;;;;;;12.95;2.58;;;;;;;-145.67;100.00;66521.78;4984639;28;20429;-77
2022/07/03 04:52:55;;;;;;;16.60;2.53;;;;;;;-145.67;100.00;66521.78;4989208;28;20057;-76
2022/07/03 04:55:21;;;;;;;11.55;2.25;;;;;;;-145.67;100.00;66521.78;5003048;28;20046;-76
2022/07/03 04:57:47;;;;;;;8.52;2.30;;;;;;;-145.67;100.00;66521.78;5002693;28;20120;-78
2022/07/03 05:00:15;;;;;;;11.55;2.30;;;;;;;-145.67;100.00;66521.78;5007086;28;26186;-78
2022/07/03 05:02:40;;;;;;;11.05;1.92;;;;;;;-145.67;100.00;66521.78;4990472;28;20146;-78
2022/07/03 05:05:07;;;;;;;10.43;2.40;;;;;;;-145.67;100.00;66521.78;5001318;28;20059;-77
2022/07/03 05:07:32;;;;;;;10.52;2.05;;;;;;;-145.67;100.00;66521.78;5002141;28;20172;-78
2022/07/03 05:09:58;;;;;;;9.68;1.80;;;;;;;-145.67;100.00;66521.78;5017458;28;20048;-77
2022/07/03 05:12:24;;;;;;;11.52;2.03;;;;;;;-145.67;100.00;66521.78;4999314;28;20141;-78
2022/07/03 05:14:52;;;;;;;9.93;1.92;;;;;;;-145.67;100.00;66521.78;5001024;28;20061;-78
2022/07/03 05:17:18;;;;;;;11.23;1.77;;;;;;;-145.67;100.00;66521.78;4999547;28;20040;-76
2022/07/03 05:19:44;;;;;;;8.43;1.60;;;;;;;-145.67;100.00;66521.78;5001541;28;20029;-78
2022/07/03 05:22:10;;;;;;;10.27;1.95;;;;;;;-145.67;100.00;66521.78;5001524;28;20034;-77
2022/07/03 05:24:36;;;;;;;7.90;1.63;;;;;;;-145.67;100.00;66521.78;5001238;28;20057;-78
2022/07/03 05:27:02;;;;;;;11.57;2.22;;;;;;;-145.67;100.00;66521.78;5002109;28;20463;-76
2022/07/03 05:29:28;;;;;;;10.63;2.20;;;;;;;-145.67;100.00;66521.78;5003814;28;20058;-76
2022/07/03 05:31:53;;;;;;;13.30;2.05;;;;;;;-145.67;100.00;66521.78;4972432;28;20057;-77
2022/07/03 05:34:19;;;;;;;9.45;2.08;;;;;;;-145.67;100.00;66521.78;4988916;28;20237;-76
2022/07/03 05:36:49;;;;;;;9.38;1.77;;;;;;;-145.67;100.00;66521.78;4983894;28;20167;-77
2022/07/03 05:39:33;;;;;;;11.30;1.73;;;;;;;-145.67;100.00;66521.78;4988318;28;20041;-76
2022/07/03 05:42:00;;;;;;;12.00;1.85;;;;;;;-145.67;100.00;66521.78;5006132;28;20030;-78
2022/07/03 05:44:26;;;;;;;11.18;2.00;;;;;;;-145.67;100.00;66521.78;5001616;28;20044;-76
2022/07/03 05:46:51;;;;;;;9.43;2.13;;;;;;;-145.67;100.00;66521.78;4985891;28;20033;-76
2022/07/03 05:49:17;;;;;;;7.97;1.80;;;;;;;-145.67;100.00;66521.78;5003062;28;20065;-77
2022/07/03 05:51:42;;;;;;;10.23;2.13;;;;;;;-145.67;100.00;66521.78;4978652;28;20187;-76
2022/07/03 05:54:09;;;;;;;11.35;2.30;;;;;;;-145.67;100.00;66521.78;5005300;28;20065;-77
2022/07/03 05:56:35;;;;;;;13.85;1.80;;;;;;;-145.67;100.00;66521.78;5012735;28;20578;-77
2022/07/03 05:59:01;;;;;;;10.55;2.08;;;;;;;-145.67;100.00;66521.78;4997671;28;20478;-77
2022/07/03 06:01:31;;;;;;;10.50;2.30;;;;;;;-145.67;100.00;66521.78;5001911;28;20064;-77
2022/07/03 06:03:57;;;;;;;9.98;1.70;;;;;;;-145.67;100.00;66521.78;5001862;28;20041;-77
2022/07/03 06:06:23;;;;;;;15.02;1.80;;;;;;;-145.67;100.00;66521.78;5006557;28;21863;-78
2022/07/03 06:08:48;;;;;;;9.18;1.70;;;;;;;-145.67;100.00;66521.78;5002447;28;20038;-79
2022/07/03 06:11:14;;;;;;;11.75;2.30;;;;;;;-145.67;100.00;66521.78;4991124;28;20324;-78
2022/07/03 06:13:39;;;;;;;12.80;2.15;;;;;;;-145.67;100.00;66521.78;5005941;28;20449;-78
2022/07/03 06:16:06;;;;;;;9.70;1.98;;;;;;;-145.67;100.00;66521.78;5003881;28;20239;-76
2022/07/03 06:18:32;;;;;;;8.43;1.98;;;;;;;-145.67;100.00;66521.78;5003341;28;20116;-77
2022/07/03 06:20:58;;;;;;;8.77;1.67;;;;;;;-145.67;100.00;66521.78;5016886;28;20041;-80
2022/07/03 06:23:24;;;;;;;11.75;1.70;;;;;;;-145.67;100.00;66521.78;5006829;28;20383;-78
2022/07/03 06:25:49;;;;;;;7.60;1.70;;;;;;;-145.67;100.00;66521.78;5016305;28;20505;-79
2022/07/03 06:28:14;;;;;;;8.60;1.40;;;;;;;-145.67;100.00;66521.78;4985809;28;20513;-79
2022/07/03 06:30:43;;;;;;;6.75;1.90;;;;;;;-145.67;100.00;66521.78;4998578;28;20156;-78
2022/07/03 06:33:08;;;;;;;8.00;1.73;;;;;;;-145.67;100.00;66521.78;5000069;28;20102;-76
2022/07/03 06:35:37;;;;;;;6.15;1.13;;;;;;;-145.67;100.00;66521.78;4998714;28;20052;-77
2022/07/03 06:38:03;;;;;;;7.78;1.40;;;;;;;-145.67;100.00;66521.78;4998343;28;20042;-77
2022/07/03 06:40:28;;;;;;;5.95;1.40;;;;;;;-145.67;100.00;66521.78;5012533;28;21867;-77
2022/07/03 06:42:54;;;;;;;9.00;1.77;;;;;;;-145.67;100.00;66521.78;4975980;28;20453;-79
2022/07/03 06:45:19;;;;;;;7.18;1.35;;;;;;;-145.67;100.00;66521.78;5001777;28;20044;-78
2022/07/03 06:47:47;;;;;;;8.18;1.70;;;;;;;-145.67;100.00;66521.78;5003156;28;20040;-78
2022/07/03 06:50:13;;;;;;;5.32;1.38;;;;;;;-145.67;100.00;66521.78;4993891;28;20034;-78
2022/07/03 06:52:38;;;;;;;6.88;1.33;;;;;;;-145.67;100.00;66521.78;5005863;28;20052;-78
2022/07/03 06:55:05;;;;;;;5.25;1.25;;;;;;;-145.67;100.00;66521.78;5014993;28;20041;-77
2022/07/03 06:57:31;;;;;;;4.63;1.35;;;;;;;-145.67;100.00;66521.78;5002535;28;20041;-77
2022/07/03 06:59:56;;;;;;;6.00;1.00;;;;;;;-145.67;100.00;66521.78;4998927;28;20375;-77
2022/07/03 07:02:22;;;;;;;5.07;1.02;;;;;;;-145.67;100.00;66521.78;5012988;28;20167;-76
2022/07/03 07:04:49;;;;;;;6.18;1.30;;;;;;;-145.67;100.00;66521.78;4999101;28;20045;-77
2022/07/03 07:07:15;;;;;;;5.65;1.20;;;;;;;-145.67;100.00;66521.78;4989265;28;20436;-77
2022/07/03 07:09:41;;;;;;;6.20;1.35;;;;;;;-145.67;100.00;66521.78;5001025;28;20042;-77
2022/07/03 07:12:07;;;;;;;4.47;1.20;;;;;;;-145.67;100.00;66521.78;4998574;28;20391;-77
2022/07/03 07:14:32;;;;;;;6.55;1.23;;;;;;;-145.67;100.00;66521.78;4997911;28;20040;-78
2022/07/03 07:16:58;;;;;;;4.50;1.08;;;;;;;-145.67;100.00;66521.78;4998727;28;20041;-76
2022/07/03 07:19:23;;;;;;;7.05;1.40;;;;;;;-145.67;100.00;66521.78;4998798;28;20491;-77
2022/07/03 07:21:49;;;;;;;7.47;1.42;;;;;;;-145.67;100.00;66521.78;4998280;28;20042;-76
2022/07/03 07:24:15;;;;;;;6.82;1.30;;;;;;;-145.67;100.00;66521.78;4999337;28;20039;-77
2022/07/03 07:26:43;;;;;;;4.65;1.30;;;;;;;-145.67;100.00;66521.78;4994938;28;20137;-77
2022/07/03 07:29:09;;;;;;;6.72;1.35;;;;;;;-145.67;100.00;66521.78;4995149;28;20037;-78
2022/07/03 07:31:35;;;;;;;4.63;1.48;;;;;;;-145.67;100.00;66521.78;4998700;28;20053;-78
2022/07/03 07:34:04;;;;;;;7.63;1.33;;;;;;;-145.67;100.00;66521.78;4997301;28;20474;-78
2022/07/03 07:36:30;;;;;;;2.45;0.90;;;;;;;-145.67;100.00;66521.78;4978788;28;20091;-76
2022/07/03 07:38:55;;;;;;;6.95;1.50;;;;;;;-145.67;100.00;66521.78;4996390;28;20030;-77
2022/07/03 07:41:21;;;;;;;4.28;1.10;;;;;;;-145.67;100.00;66521.78;4995829;28;20141;-77
2022/07/03 07:43:47;;;;;;;5.45;1.20;;;;;;;-145.67;100.00;66521.78;4993077;28;20057;-78
2022/07/03 07:46:12;;;;;;;3.15;0.90;;;;;;;-145.67;100.00;66521.78;4996274;28;20064;-77
2022/07/03 07:48:38;;;;;;;4.30;1.10;;;;;;;-145.67;100.00;66521.78;4994954;28;20124;-79
2022/07/03 07:51:04;;;;;;;4.35;1.20;;;;;;;-145.67;100.00;66521.78;4992787;28;20128;-78
2022/07/03 07:53:29;;;;;;;6.35;1.23;;;;;;;-145.67;100.00;66521.78;5012256;28;20029;-77
2022/07/03 07:55:57;;;;;;;6.30;1.30;;;;;;;-145.67;100.00;66521.78;4996696;28;20482;-78
2022/07/03 07:58:23;;;;;;;4.80;1.30;;;;;;;-145.67;100.00;66521.78;4996267;28;20029;-78
2022/07/03 08:06:21;;;;;;;3.55;1.20;;;;;;;-145.67;100.00;66521.78;4997210;28;20084;-77
2022/07/03 08:08:46;;;;;;;4.60;1.50;;;;;;;-145.67;100.00;66521.78;4998606;28;20103;-77
2022/07/03 08:11:12;;;;;;;4.60;1.20;;;;;;;-145.67;100.00;66521.78;4994305;28;20054;-77
2022/07/03 08:13:38;;;;;;;4.15;1.00;;;;;;;-145.67;100.00;66521.78;5001046;28;20056;-79
2022/07/03 08:16:04;;;;;;;4.68;1.00;;;;;;;-145.67;100.00;66521.78;5001417;28;20037;-78
2022/07/03 08:18:31;;;;;;;3.80;0.95;;;;;;;-145.67;100.00;66521.78;4984145;28;20363;-79
2022/07/03 08:20:57;;;;;;;4.10;1.15;;;;;;;-145.67;100.00;66521.78;4998048;28;20191;-78
2022/07/03 08:23:25;;;;;;;4.95;1.20;;;;;;;-145.67;100.00;66521.78;4998620;28;20093;-78
2022/07/03 08:25:50;;;;;;;3.90;1.30;;;;;;;-145.67;100.00;66521.78;5000114;28;20038;-77
2022/07/03 08:28:18;;;;;;;3.28;1.30;;;;;;;-145.67;100.00;66521.78;5004296;28;20042;-80
2022/07/03 08:30:45;;;;;;;4.05;1.30;;;;;;;-145.67;100.00;66521.78;5015126;28;20041;-76
2022/07/03 08:33:11;;;;;;;3.08;1.20;;;;;;;-145.67;100.00;66521.78;5001402;28;20041;-77
2022/07/03 08:35:36;;;;;;;3.13;1.83;;;;;;;-145.67;100.00;66521.78;4999546;28;20065;-77
2022/07/03 08:38:04;;;;;;;2.72;1.38;;;;;;;-145.67;100.00;66521.78;4985745;28;21414;-79
2022/07/03 08:40:32;;;;;;;2.97;1.00;;;;;;;-145.67;100.00;66521.78;5001043;28;20037;-78
2022/07/03 08:43:00;;;;;;;1.75;0.95;;;;;;;-145.67;100.00;66521.78;5001365;28;20126;-79
2022/07/03 08:45:29;;;;;;;3.40;1.20;;;;;;;-145.67;100.00;66521.78;5017934;28;20059;-78
2022/07/03 08:47:57;;;;;;;3.10;1.40;;;;;;;-145.67;100.00;66521.78;5003435;28;20144;-76
2022/07/03 08:50:25;;;;;;;3.78;1.33;;;;;;;-145.67;100.00;66521.78;4991560;28;20033;-79
2022/07/03 08:52:51;;;;;;;4.32;1.50;;;;;;;-145.67;100.00;66521.78;5003579;28;20140;-79
2022/07/03 08:55:18;;;;;;;3.72;1.40;;;;;;;-145.67;100.00;66521.78;5009322;28;20096;-79
2022/07/03 08:57:45;;;;;;;3.83;1.52;;;;;;;-145.67;100.00;66521.78;5018209;28;20493;-79
2022/07/03 09:00:13;;;;;;;5.93;1.38;;;;;;;-145.67;100.00;66521.78;4991811;28;20058;-79
2022/07/03 09:02:43;;;;;;;3.65;1.13;;;;;;;-145.67;100.00;66521.78;4990635;28;20513;-78
2022/07/03 09:05:10;;;;;;;4.47;1.50;;;;;;;-145.67;100.00;66521.78;5016871;28;20231;-78
2022/07/03 09:07:37;;;;;;;2.60;1.10;;;;;;;-145.67;100.00;66521.78;5005155;28;20153;-77
2022/07/03 09:10:04;;;;;;;3.00;0.95;;;;;;;-145.67;100.00;66521.78;5001405;28;20049;-77
2022/07/03 09:12:31;;;;;;;2.53;0.95;;;;;;;-145.67;100.00;66521.78;5002218;28;20733;-81
2022/07/03 09:14:59;;;;;;;2.80;1.15;;;;;;;-145.67;100.00;66521.78;5004049;28;20379;-80
2022/07/03 09:17:27;;;;;;;1.73;0.80;;;;;;;-145.67;100.00;66521.78;4989588;28;20038;-78
2022/07/03 09:19:52;;;;;;;1.83;0.90;;;;;;;-145.67;100.00;66521.78;5003387;28;20026;-85
2022/07/03 09:22:29;;;;;;;4.88;1.20;;;;;;;-145.67;100.00;66521.78;4988606;28;20129;-81
2022/07/03 09:25:11;;;;;;;3.72;1.00;;;;;;;-145.67;100.00;66521.78;5003088;28;20037;-78
2022/07/03 09:27:49;;;;;;;2.97;1.13;;;;;;;-145.67;100.00;66521.78;5008861;28;20592;-76
2022/07/03 09:30:15;;;;;;;3.45;0.80;;;;;;;-145.67;100.00;66521.78;5001263;28;20136;-78
2022/07/03 09:32:44;;;;;;;1.20;0.60;;;;;;;-145.67;100.00;66521.78;4991256;28;20047;-77
2022/07/03 09:35:24;;;;;;;2.70;0.75;;;;;;;-145.67;100.00;66521.78;5014538;28;20631;-77
2022/07/03 09:38:02;;;;;;;4.53;0.73;;;;;;;-145.67;100.00;66521.78;5002724;28;20369;-78
2022/07/03 09:40:49;;;;;;;1.60;0.75;;;;;;;-145.67;100.00;66521.78;4989346;28;20041;-78
2022/07/03 09:43:17;;;;;;;2.45;0.70;;;;;;;-145.67;100.00;66521.78;5016335;28;20034;-75
2022/07/03 09:46:03;;;;;;;2.63;0.80;;;;;;;-145.67;100.00;66521.78;5001273;28;20034;-76
2022/07/03 09:48:33;;;;;;;3.15;0.75;;;;;;;-145.67;100.00;66521.78;5015744;28;20044;-75
2022/07/03 09:51:14;;;;;;;2.78;0.80;;;;;;;-145.67;100.00;66521.78;5006047;28;20361;-75
2022/07/03 09:53:43;;;;;;;;;;;;;;;-145.67;100.00;66521.78;5003158;28;20530;-76
2022/07/03 09:56:08;;;;;;;3.75;0.88;;;;;;;-145.67;100.00;66521.78;5005661;28;19917;-76
2022/07/03 09:58:34;;;;;;;2.40;0.90;;;;;;;-145.67;100.00;66521.78;5003551;28;20498;-75
2022/07/03 10:01:16;;;;;;;3.50;0.85;;;;;;;-145.67;100.00;66521.78;5004317;28;20040;-75
2022/07/03 10:03:43;;;;;;;4.85;0.95;;;;;;;-145.67;100.00;66521.78;4985316;28;20034;-75
2022/07/03 10:06:09;;;;;;;2.83;1.00;;;;;;;-145.67;100.00;66521.78;5003804;28;20058;-76
2022/07/03 10:08:35;;;;;;;2.38;0.80;;;;;;;-145.67;100.00;66521.78;5001943;28;20032;-76
2022/07/03 10:11:01;;;;;;;1.48;1.00;;;;;;;-145.67;100.00;66521.78;5003494;28;20071;-77
2022/07/03 10:13:26;;;;;;;2.10;1.15;;;;;;;-145.67;100.00;66521.78;5016972;28;20038;-79
2022/07/03 10:15:52;;;;;;;5.88;1.55;;;;;;;-145.67;100.00;66521.78;5008549;28;20065;-77
2022/07/03 10:18:20;;;;;;;2.38;1.08;;;;;;;-145.67;100.00;66521.78;5006744;28;20399;-77
2022/07/03 10:20:48;;;;;;;4.55;1.10;;;;;;;-145.67;100.00;66521.78;4987519;28;20030;-76
2022/07/03 10:23:20;;;;;;;1.63;0.70;;;;;;;-145.67;100.00;66521.78;5009729;28;20560;-77
2022/07/03 10:25:48;;;;;;;2.47;0.95;;;;;;;-145.67;100.00;66521.78;5005748;28;20494;-83
2022/07/03 10:28:19;;;;;;;1.65;1.00;;;;;;;-145.67;100.00;66521.78;5004484;28;20144;-75
2022/07/03 10:30:47;;;;;;;3.35;1.08;;;;;;;-145.67;100.00;66521.78;5006391;28;20053;-80
2022/07/03 10:33:13;;;;;;;2.63;0.88;;;;;;;-145.67;100.00;66521.78;5019440;28;20033;-77
2022/07/03 10:35:44;;;;;;;3.95;1.00;;;;;;;-145.67;100.00;66521.78;4988973;28;20410;-78
2022/07/03 10:38:28;;;;;;;2.40;0.90;;;;;;;-145.67;100.00;66521.78;5004656;28;20034;-76
2022/07/03 10:46:29;;;;;;;1.58;0.77;;;;;;;-145.67;100.00;66521.78;5007133;28;20060;-76
2022/07/03 10:49:04;;;;;;;2.40;0.70;;;;;;;-145.67;100.00;66521.78;5003597;28;20038;-76
2022/07/03 10:51:53;;;;;;;2.53;1.05;;;;;;;-145.67;100.00;66521.78;5004693;28;20614;-76
2022/07/03 10:54:28;;;;;;;2.65;0.73;;;;;;;-145.67;100.00;66521.78;5001909;28;20060;-77
2022/07/03 10:56:58;;;;;;;3.45;0.90;;;;;;;-145.67;100.00;66521.78;5000601;28;20034;-77
2022/07/03 10:59:36;;;;;;;3.10;0.80;;;;;;;-145.67;100.00;66521.78;5014670;28;20033;-77
2022/07/03 11:02:23;;;;;;;2.03;0.60;;;;;;;-145.67;100.00;66521.78;5013700;28;20037;-76
2022/07/03 11:05:00;;;;;;;2.15;0.70;;;;;;;-145.67;100.00;66521.78;5001595;28;20037;-75
2022/07/03 11:07:44;;;;;;;2.03;0.90;;;;;;;-145.67;100.00;66521.78;5000254;28;20541;-75
2022/07/03 11:10:12;;;;;;;2.53;0.60;;;;;;;-145.67;100.00;66521.78;5019909;28;20041;-75
2022/07/03 11:12:55;;;;;;;2.42;0.68;;;;;;;-145.67;100.00;66521.78;5002052;28;20049;-76
2022/07/03 11:15:28;;;;;;;3.60;0.88;;;;;;;-145.67;100.00;66521.78;5003917;28;20041;-77
2022/07/03 11:18:17;;;;;;;2.80;0.73;;;;;;;-145.67;100.00;66521.78;5005038;28;20029;-76
2022/07/03 11:20:42;;;;;;;2.13;0.80;;;;;;;-145.67;100.00;66521.78;5004723;28;20502;-77
2022/07/03 11:23:10;;;;;;;2.83;0.77;;;;;;;-145.67;100.00;66521.78;5002695;28;20038;-77
2022/07/03 11:25:46;;;;;;;2.45;0.77;;;;;;;-145.67;100.00;66521.78;5016987;28;20160;-81
2022/07/03 11:28:30;;;;;;;3.60;0.75;;;;;;;-145.67;100.00;66521.78;5007167;28;20041;-79
2022/07/03 11:33:58;;;;;;;4.15;0.80;;;;;;;-145.67;100.00;66521.78;5001058;28;20051;-75